sensor_id;sensor_type;location;lat;lon;timestamp;P1;durP1;ratioP1;P2;durP2;ratioP2
25381;SDS011;16307;42.896;20.874;2024-03-23T00:55:03;12.02;;;6.53;;
25381;SDS011;16307;42.896;20.874;2024-03-23T00:57:48;9.70;;;6.25;;
25381;SDS011;16307;42.896;20.874;2024-03-23T01:00:33;9.80;;;6.18;;
25381;SDS011;16307;42.896;20.874;2024-03-23T01:03:18;11.65;;;6.25;;
25381;SDS011;16307;42.896;20.874;2024-03-23T01:06:03;14.57;;;6.07;;
25381;SDS011;16307;42.896;20.874;2024-03-23T01:08:49;13.05;;;6.72;;
25381;SDS011;16307;42.896;20.874;2024-03-23T01:11:34;12.23;;;6.47;;
25381;SDS011;16307;42.896;20.874;2024-03-23T01:14:18;12.48;;;7.10;;
25381;SDS011;16307;42.896;20.874;2024-03-23T01:17:03;13.63;;;7.80;;
25381;SDS011;16307;42.896;20.874;2024-03-23T01:19:48;12.85;;;7.03;;
25381;SDS011;16307;42.896;20.874;2024-03-23T01:22:36;14.85;;;7.53;;
25381;SDS011;16307;42.896;20.874;2024-03-23T01:25:21;12.60;;;6.90;;
25381;SDS011;16307;42.896;20.874;2024-03-23T01:28:06;12.45;;;7.05;;
25381;SDS011;16307;42.896;20.874;2024-03-23T01:30:51;13.13;;;6.47;;
25381;SDS011;16307;42.896;20.874;2024-03-23T01:33:36;14.38;;;6.65;;
25381;SDS011;16307;42.896;20.874;2024-03-23T01:36:22;12.43;;;6.10;;
25381;SDS011;16307;42.896;20.874;2024-03-23T01:39:06;13.02;;;6.20;;
25381;SDS011;16307;42.896;20.874;2024-03-23T01:41:53;14.23;;;6.60;;
25381;SDS011;16307;42.896;20.874;2024-03-23T01:44:38;12.40;;;6.18;;
25381;SDS011;16307;42.896;20.874;2024-03-23T01:47:23;12.02;;;6.80;;
25381;SDS011;16307;42.896;20.874;2024-03-23T01:50:08;14.80;;;6.93;;
25381;SDS011;16307;42.896;20.874;2024-03-23T01:52:55;17.05;;;7.40;;
25381;SDS011;16307;42.896;20.874;2024-03-23T01:55:40;12.77;;;6.40;;
25381;SDS011;16307;42.896;20.874;2024-03-23T01:58:25;13.65;;;6.85;;
25381;SDS011;16307;42.896;20.874;2024-03-23T02:01:10;12.27;;;6.43;;
25381;SDS011;16307;42.896;20.874;2024-03-23T02:03:55;12.55;;;6.68;;
25381;SDS011;16307;42.896;20.874;2024-03-23T02:06:40;12.88;;;6.65;;
25381;SDS011;16307;42.896;20.874;2024-03-23T02:09:25;11.55;;;6.47;;
25381;SDS011;16307;42.896;20.874;2024-03-23T02:12:10;12.85;;;6.78;;
25381;SDS011;16307;42.896;20.874;2024-03-23T02:14:55;16.52;;;6.38;;
25381;SDS011;16307;42.896;20.874;2024-03-23T02:17:40;11.07;;;6.05;;
25381;SDS011;16307;42.896;20.874;2024-03-23T02:20:25;13.00;;;6.07;;
25381;SDS011;16307;42.896;20.874;2024-03-23T02:23:13;11.00;;;5.90;;
25381;SDS011;16307;42.896;20.874;2024-03-23T02:25:59;12.05;;;6.18;;
25381;SDS011;16307;42.896;20.874;2024-03-23T02:28:44;11.20;;;5.95;;
25381;SDS011;16307;42.896;20.874;2024-03-23T02:31:29;12.35;;;6.53;;
25381;SDS011;16307;42.896;20.874;2024-03-23T02:34:14;11.48;;;5.63;;
25381;SDS011;16307;42.896;20.874;2024-03-23T02:36:59;11.82;;;6.68;;
25381;SDS011;16307;42.896;20.874;2024-03-23T02:39:44;12.30;;;6.40;;
25381;SDS011;16307;42.896;20.874;2024-03-23T02:42:29;14.90;;;6.43;;
25381;SDS011;16307;42.896;20.874;2024-03-23T02:45:14;10.38;;;6.47;;
25381;SDS011;16307;42.896;20.874;2024-03-23T02:47:59;13.02;;;6.35;;
25381;SDS011;16307;42.896;20.874;2024-03-23T02:50:44;11.85;;;6.30;;
25381;SDS011;16307;42.896;20.874;2024-03-23T02:53:29;14.32;;;6.85;;
25381;SDS011;16307;42.896;20.874;2024-03-23T02:56:13;12.27;;;7.25;;
25381;SDS011;16307;42.896;20.874;2024-03-23T02:59:00;16.27;;;6.57;;
25381;SDS011;16307;42.896;20.874;2024-03-23T03:01:45;12.52;;;6.55;;
25381;SDS011;16307;42.896;20.874;2024-03-23T03:04:30;10.80;;;6.18;;
25381;SDS011;16307;42.896;20.874;2024-03-23T03:07:16;12.50;;;6.78;;
25381;SDS011;16307;42.896;20.874;2024-03-23T03:10:01;14.00;;;6.50;;
25381;SDS011;16307;42.896;20.874;2024-03-23T03:12:46;12.50;;;6.35;;
25381;SDS011;16307;42.896;20.874;2024-03-23T03:15:31;13.95;;;6.38;;
25381;SDS011;16307;42.896;20.874;2024-03-23T03:18:17;13.88;;;6.05;;
25381;SDS011;16307;42.896;20.874;2024-03-23T03:21:02;11.30;;;5.70;;
25381;SDS011;16307;42.896;20.874;2024-03-23T03:23:50;12.88;;;6.80;;
25381;SDS011;16307;42.896;20.874;2024-03-23T03:26:34;12.25;;;6.57;;
25381;SDS011;16307;42.896;20.874;2024-03-23T03:29:20;12.73;;;5.95;;
25381;SDS011;16307;42.896;20.874;2024-03-23T03:32:05;11.93;;;6.75;;
25381;SDS011;16307;42.896;20.874;2024-03-23T03:34:50;13.57;;;6.50;;
25381;SDS011;16307;42.896;20.874;2024-03-23T03:37:35;12.30;;;7.30;;
25381;SDS011;16307;42.896;20.874;2024-03-23T03:40:20;13.55;;;7.10;;
25381;SDS011;16307;42.896;20.874;2024-03-23T03:43:05;11.82;;;6.25;;
25381;SDS011;16307;42.896;20.874;2024-03-23T03:45:53;13.63;;;7.00;;
25381;SDS011;16307;42.896;20.874;2024-03-23T03:48:39;12.15;;;6.30;;
25381;SDS011;16307;42.896;20.874;2024-03-23T03:51:24;11.70;;;6.95;;
25381;SDS011;16307;42.896;20.874;2024-03-23T03:54:09;12.30;;;6.95;;
25381;SDS011;16307;42.896;20.874;2024-03-23T03:56:54;14.93;;;6.63;;
25381;SDS011;16307;42.896;20.874;2024-03-23T03:59:39;14.20;;;6.88;;
25381;SDS011;16307;42.896;20.874;2024-03-23T04:02:24;13.88;;;6.53;;
25381;SDS011;16307;42.896;20.874;2024-03-23T04:05:09;12.30;;;7.13;;
25381;SDS011;16307;42.896;20.874;2024-03-23T04:07:54;14.63;;;6.88;;
25381;SDS011;16307;42.896;20.874;2024-03-23T04:10:38;14.75;;;6.40;;
25381;SDS011;16307;42.896;20.874;2024-03-23T04:13:24;14.77;;;6.47;;
25381;SDS011;16307;42.896;20.874;2024-03-23T04:16:09;12.38;;;6.78;;
25381;SDS011;16307;42.896;20.874;2024-03-23T04:18:54;12.63;;;6.80;;
25381;SDS011;16307;42.896;20.874;2024-03-23T04:21:39;16.73;;;7.05;;
25381;SDS011;16307;42.896;20.874;2024-03-23T04:24:25;18.80;;;7.25;;
25381;SDS011;16307;42.896;20.874;2024-03-23T04:27:11;13.63;;;7.60;;
25381;SDS011;16307;42.896;20.874;2024-03-23T04:29:56;15.95;;;7.63;;
25381;SDS011;16307;42.896;20.874;2024-03-23T04:32:41;14.52;;;7.00;;
25381;SDS011;16307;42.896;20.874;2024-03-23T04:35:26;15.45;;;7.28;;
25381;SDS011;16307;42.896;20.874;2024-03-23T04:38:11;13.15;;;7.00;;
25381;SDS011;16307;42.896;20.874;2024-03-23T04:40:57;21.60;;;8.73;;
25381;SDS011;16307;42.896;20.874;2024-03-23T04:43:43;13.40;;;6.60;;
25381;SDS011;16307;42.896;20.874;2024-03-23T04:46:28;10.98;;;6.45;;
25381;SDS011;16307;42.896;20.874;2024-03-23T04:49:13;13.80;;;7.78;;
25381;SDS011;16307;42.896;20.874;2024-03-23T04:51:59;17.60;;;7.70;;
25381;SDS011;16307;42.896;20.874;2024-03-23T04:54:44;14.15;;;7.68;;
25381;SDS011;16307;42.896;20.874;2024-03-23T04:57:32;15.90;;;8.07;;
25381;SDS011;16307;42.896;20.874;2024-03-23T05:00:17;20.50;;;8.25;;
25381;SDS011;16307;42.896;20.874;2024-03-23T05:03:03;19.13;;;7.30;;
25381;SDS011;16307;42.896;20.874;2024-03-23T05:05:49;15.55;;;7.55;;
25381;SDS011;16307;42.896;20.874;2024-03-23T05:08:34;20.00;;;8.13;;
25381;SDS011;16307;42.896;20.874;2024-03-23T05:11:19;16.05;;;7.78;;
25381;SDS011;16307;42.896;20.874;2024-03-23T05:14:05;18.85;;;8.43;;
25381;SDS011;16307;42.896;20.874;2024-03-23T05:16:51;14.05;;;8.35;;
25381;SDS011;16307;42.896;20.874;2024-03-23T05:19:36;18.13;;;8.27;;
25381;SDS011;16307;42.896;20.874;2024-03-23T05:22:21;15.75;;;7.72;;
25381;SDS011;16307;42.896;20.874;2024-03-23T05:25:06;15.25;;;8.00;;
25381;SDS011;16307;42.896;20.874;2024-03-23T05:27:51;15.68;;;8.07;;
25381;SDS011;16307;42.896;20.874;2024-03-23T05:30:36;17.23;;;8.23;;
25381;SDS011;16307;42.896;20.874;2024-03-23T05:33:21;21.80;;;9.77;;
25381;SDS011;16307;42.896;20.874;2024-03-23T05:36:06;17.40;;;8.55;;
25381;SDS011;16307;42.896;20.874;2024-03-23T05:38:55;22.42;;;10.50;;
25381;SDS011;16307;42.896;20.874;2024-03-23T05:41:40;25.05;;;11.70;;
25381;SDS011;16307;42.896;20.874;2024-03-23T05:44:25;24.98;;;12.27;;
25381;SDS011;16307;42.896;20.874;2024-03-23T05:47:10;25.10;;;12.55;;
25381;SDS011;16307;42.896;20.874;2024-03-23T05:49:56;27.48;;;13.68;;
25381;SDS011;16307;42.896;20.874;2024-03-23T05:52:41;32.67;;;14.63;;
25381;SDS011;16307;42.896;20.874;2024-03-23T05:55:28;30.52;;;14.52;;
25381;SDS011;16307;42.896;20.874;2024-03-23T05:58:14;34.50;;;14.98;;
25381;SDS011;16307;42.896;20.874;2024-03-23T06:01:00;33.78;;;16.90;;
25381;SDS011;16307;42.896;20.874;2024-03-23T06:03:46;30.02;;;15.63;;
25381;SDS011;16307;42.896;20.874;2024-03-23T06:06:31;40.05;;;17.27;;
25381;SDS011;16307;42.896;20.874;2024-03-23T06:09:16;32.38;;;15.80;;
25381;SDS011;16307;42.896;20.874;2024-03-23T06:12:01;42.95;;;20.50;;
25381;SDS011;16307;42.896;20.874;2024-03-23T06:14:46;28.98;;;16.30;;
25381;SDS011;16307;42.896;20.874;2024-03-23T06:17:33;30.98;;;16.73;;
25381;SDS011;16307;42.896;20.874;2024-03-23T06:20:18;36.88;;;18.10;;
25381;SDS011;16307;42.896;20.874;2024-03-23T06:23:03;34.53;;;17.17;;
25381;SDS011;16307;42.896;20.874;2024-03-23T06:25:48;37.40;;;17.60;;
25381;SDS011;16307;42.896;20.874;2024-03-23T06:28:33;38.85;;;17.50;;
25381;SDS011;16307;42.896;20.874;2024-03-23T06:31:19;39.25;;;17.55;;
25381;SDS011;16307;42.896;20.874;2024-03-23T06:34:05;30.20;;;15.35;;
25381;SDS011;16307;42.896;20.874;2024-03-23T06:36:50;38.75;;;17.15;;
25381;SDS011;16307;42.896;20.874;2024-03-23T06:39:35;41.75;;;16.42;;
25381;SDS011;16307;42.896;20.874;2024-03-23T06:42:23;49.13;;;19.20;;
25381;SDS011;16307;42.896;20.874;2024-03-23T06:45:08;33.25;;;16.05;;
25381;SDS011;16307;42.896;20.874;2024-03-23T06:47:54;32.28;;;17.20;;
25381;SDS011;16307;42.896;20.874;2024-03-23T06:50:40;33.13;;;17.65;;
25381;SDS011;16307;42.896;20.874;2024-03-23T06:53:25;30.33;;;16.65;;
25381;SDS011;16307;42.896;20.874;2024-03-23T06:56:10;38.05;;;17.13;;
25381;SDS011;16307;42.896;20.874;2024-03-23T06:58:55;34.90;;;17.20;;
25381;SDS011;16307;42.896;20.874;2024-03-23T07:01:41;37.13;;;16.45;;
25381;SDS011;16307;42.896;20.874;2024-03-23T07:04:26;32.78;;;17.00;;
25381;SDS011;16307;42.896;20.874;2024-03-23T07:07:11;34.25;;;16.35;;
25381;SDS011;16307;42.896;20.874;2024-03-23T07:09:56;31.13;;;16.42;;
25381;SDS011;16307;42.896;20.874;2024-03-23T07:12:41;33.40;;;14.63;;
25381;SDS011;16307;42.896;20.874;2024-03-23T07:15:26;26.65;;;14.35;;
25381;SDS011;16307;42.896;20.874;2024-03-23T07:18:11;28.77;;;15.52;;
25381;SDS011;16307;42.896;20.874;2024-03-23T07:20:56;26.00;;;12.85;;
25381;SDS011;16307;42.896;20.874;2024-03-23T07:23:42;25.52;;;13.10;;
25381;SDS011;16307;42.896;20.874;2024-03-23T07:26:30;24.58;;;13.45;;
25381;SDS011;16307;42.896;20.874;2024-03-23T07:29:15;26.20;;;14.15;;
25381;SDS011;16307;42.896;20.874;2024-03-23T07:32:00;32.85;;;13.60;;
25381;SDS011;16307;42.896;20.874;2024-03-23T07:34:45;29.10;;;13.93;;
25381;SDS011;16307;42.896;20.874;2024-03-23T07:37:30;28.50;;;14.65;;
25381;SDS011;16307;42.896;20.874;2024-03-23T07:40:15;35.15;;;15.90;;
25381;SDS011;16307;42.896;20.874;2024-03-23T07:43:00;31.98;;;13.45;;
25381;SDS011;16307;42.896;20.874;2024-03-23T07:45:51;31.65;;;13.38;;
25381;SDS011;16307;42.896;20.874;2024-03-23T07:48:38;28.77;;;13.47;;
25381;SDS011;16307;42.896;20.874;2024-03-23T07:51:24;24.98;;;12.95;;
25381;SDS011;16307;42.896;20.874;2024-03-23T07:54:09;28.08;;;13.85;;
25381;SDS011;16307;42.896;20.874;2024-03-23T07:56:54;28.50;;;13.85;;
25381;SDS011;16307;42.896;20.874;2024-03-23T07:59:39;28.15;;;12.57;;
25381;SDS011;16307;42.896;20.874;2024-03-23T08:02:24;25.85;;;13.10;;
25381;SDS011;16307;42.896;20.874;2024-03-23T08:05:09;23.25;;;11.90;;
25381;SDS011;16307;42.896;20.874;2024-03-23T08:07:54;25.45;;;12.88;;
25381;SDS011;16307;42.896;20.874;2024-03-23T08:10:49;23.35;;;12.25;;
25381;SDS011;16307;42.896;20.874;2024-03-23T08:13:34;26.23;;;12.88;;
25381;SDS011;16307;42.896;20.874;2024-03-23T08:16:20;27.33;;;13.27;;
25381;SDS011;16307;42.896;20.874;2024-03-23T08:19:05;25.40;;;12.45;;
25381;SDS011;16307;42.896;20.874;2024-03-23T08:21:53;26.45;;;12.25;;
25381;SDS011;16307;42.896;20.874;2024-03-23T08:24:39;26.92;;;11.38;;
25381;SDS011;16307;42.896;20.874;2024-03-23T08:27:24;23.30;;;11.05;;
25381;SDS011;16307;42.896;20.874;2024-03-23T08:30:09;27.65;;;12.25;;
25381;SDS011;16307;42.896;20.874;2024-03-23T08:32:55;27.67;;;11.98;;
25381;SDS011;16307;42.896;20.874;2024-03-23T08:35:39;30.80;;;13.38;;
25381;SDS011;16307;42.896;20.874;2024-03-23T08:38:26;27.98;;;13.45;;
25381;SDS011;16307;42.896;20.874;2024-03-23T08:41:11;29.35;;;12.95;;
25381;SDS011;16307;42.896;20.874;2024-03-23T08:43:57;25.00;;;12.48;;
25381;SDS011;16307;42.896;20.874;2024-03-23T08:46:42;22.75;;;11.57;;
25381;SDS011;16307;42.896;20.874;2024-03-23T08:49:27;21.17;;;11.50;;
25381;SDS011;16307;42.896;20.874;2024-03-23T08:52:12;28.55;;;12.95;;
25381;SDS011;16307;42.896;20.874;2024-03-23T08:54:57;31.02;;;12.15;;
25381;SDS011;16307;42.896;20.874;2024-03-23T08:57:42;23.25;;;11.50;;
25381;SDS011;16307;42.896;20.874;2024-03-23T09:00:28;22.95;;;11.27;;
25381;SDS011;16307;42.896;20.874;2024-03-23T09:03:13;22.17;;;10.70;;
25381;SDS011;16307;42.896;20.874;2024-03-23T09:05:58;27.58;;;11.70;;
25381;SDS011;16307;42.896;20.874;2024-03-23T09:08:43;24.85;;;10.85;;
25381;SDS011;16307;42.896;20.874;2024-03-23T09:11:28;22.52;;;10.98;;
25381;SDS011;16307;42.896;20.874;2024-03-23T09:14:13;22.48;;;10.52;;
25381;SDS011;16307;42.896;20.874;2024-03-23T09:16:58;25.08;;;12.10;;
25381;SDS011;16307;42.896;20.874;2024-03-23T09:19:43;25.73;;;10.23;;
25381;SDS011;16307;42.896;20.874;2024-03-23T09:22:28;35.78;;;12.85;;
25381;SDS011;16307;42.896;20.874;2024-03-23T09:25:13;32.70;;;11.98;;
25381;SDS011;16307;42.896;20.874;2024-03-23T09:27:58;31.33;;;14.48;;
25381;SDS011;16307;42.896;20.874;2024-03-23T09:30:43;20.27;;;10.88;;
25381;SDS011;16307;42.896;20.874;2024-03-23T09:33:28;23.70;;;11.43;;
25381;SDS011;16307;42.896;20.874;2024-03-23T09:36:14;29.20;;;11.07;;
25381;SDS011;16307;42.896;20.874;2024-03-23T09:38:59;32.75;;;14.82;;
25381;SDS011;16307;42.896;20.874;2024-03-23T09:41:44;24.38;;;12.10;;
25381;SDS011;16307;42.896;20.874;2024-03-23T09:44:30;31.73;;;12.88;;
25381;SDS011;16307;42.896;20.874;2024-03-23T09:47:15;27.83;;;13.40;;
25381;SDS011;16307;42.896;20.874;2024-03-23T09:50:00;27.75;;;12.50;;
25381;SDS011;16307;42.896;20.874;2024-03-23T09:52:46;37.03;;;16.25;;
25381;SDS011;16307;42.896;20.874;2024-03-23T09:55:31;27.67;;;12.15;;
25381;SDS011;16307;42.896;20.874;2024-03-23T09:58:16;33.38;;;14.60;;
25381;SDS011;16307;42.896;20.874;2024-03-23T10:01:02;31.15;;;16.77;;
25381;SDS011;16307;42.896;20.874;2024-03-23T10:03:48;38.00;;;17.35;;
25381;SDS011;16307;42.896;20.874;2024-03-23T10:06:33;36.45;;;15.82;;
25381;SDS011;16307;42.896;20.874;2024-03-23T10:09:19;37.33;;;16.65;;
25381;SDS011;16307;42.896;20.874;2024-03-23T10:12:11;32.25;;;13.07;;
25381;SDS011;16307;42.896;20.874;2024-03-23T10:15:00;31.13;;;12.40;;
25381;SDS011;16307;42.896;20.874;2024-03-23T10:17:45;24.90;;;11.43;;
25381;SDS011;16307;42.896;20.874;2024-03-23T10:20:30;23.65;;;9.98;;
25381;SDS011;16307;42.896;20.874;2024-03-23T10:23:18;23.67;;;10.13;;
25381;SDS011;16307;42.896;20.874;2024-03-23T10:26:19;21.05;;;10.35;;
25381;SDS011;16307;42.896;20.874;2024-03-23T10:29:09;19.23;;;8.40;;
25381;SDS011;16307;42.896;20.874;2024-03-23T10:32:09;18.80;;;7.72;;
25381;SDS011;16307;42.896;20.874;2024-03-23T10:34:54;20.65;;;6.82;;
25381;SDS011;16307;42.896;20.874;2024-03-23T10:37:40;18.90;;;7.78;;
25381;SDS011;16307;42.896;20.874;2024-03-23T10:40:26;24.73;;;8.13;;
25381;SDS011;16307;42.896;20.874;2024-03-23T10:43:11;13.82;;;6.07;;
25381;SDS011;16307;42.896;20.874;2024-03-23T10:45:56;15.50;;;6.65;;
25381;SDS011;16307;42.896;20.874;2024-03-23T10:48:43;12.55;;;5.65;;
25381;SDS011;16307;42.896;20.874;2024-03-23T10:51:29;17.55;;;6.15;;
25381;SDS011;16307;42.896;20.874;2024-03-23T10:54:14;15.25;;;6.45;;
25381;SDS011;16307;42.896;20.874;2024-03-23T10:57:06;15.15;;;5.70;;
25381;SDS011;16307;42.896;20.874;2024-03-23T10:59:54;9.68;;;5.32;;
25381;SDS011;16307;42.896;20.874;2024-03-23T11:02:40;13.93;;;6.40;;
25381;SDS011;16307;42.896;20.874;2024-03-23T11:05:29;8.95;;;4.93;;
25381;SDS011;16307;42.896;20.874;2024-03-23T11:08:29;16.30;;;8.73;;
25381;SDS011;16307;42.896;20.874;2024-03-23T11:11:19;15.43;;;5.20;;
25381;SDS011;16307;42.896;20.874;2024-03-23T11:14:04;12.00;;;5.15;;
25381;SDS011;16307;42.896;20.874;2024-03-23T11:17:08;13.50;;;5.60;;
25381;SDS011;16307;42.896;20.874;2024-03-23T11:22:46;12.00;;;5.63;;
25381;SDS011;16307;42.896;20.874;2024-03-23T11:25:31;11.23;;;5.43;;
25381;SDS011;16307;42.896;20.874;2024-03-23T11:28:18;13.15;;;7.10;;
25381;SDS011;16307;42.896;20.874;2024-03-23T11:31:08;12.57;;;6.18;;
25381;SDS011;16307;42.896;20.874;2024-03-23T11:34:02;12.63;;;6.03;;
25381;SDS011;16307;42.896;20.874;2024-03-23T11:37:02;15.63;;;6.15;;
25381;SDS011;16307;42.896;20.874;2024-03-23T11:39:49;11.95;;;5.07;;
25381;SDS011;16307;42.896;20.874;2024-03-23T11:42:34;12.85;;;5.15;;
25381;SDS011;16307;42.896;20.874;2024-03-23T11:45:19;10.65;;;5.38;;
25381;SDS011;16307;42.896;20.874;2024-03-23T11:48:05;10.20;;;5.20;;
25381;SDS011;16307;42.896;20.874;2024-03-23T11:50:55;11.85;;;5.22;;
25381;SDS011;16307;42.896;20.874;2024-03-23T11:53:42;9.43;;;4.97;;
25381;SDS011;16307;42.896;20.874;2024-03-23T11:56:27;11.18;;;4.55;;
25381;SDS011;16307;42.896;20.874;2024-03-23T11:59:12;23.88;;;11.90;;
25381;SDS011;16307;42.896;20.874;2024-03-23T12:02:25;17.60;;;7.50;;
25381;SDS011;16307;42.896;20.874;2024-03-23T12:05:16;12.23;;;6.13;;
25381;SDS011;16307;42.896;20.874;2024-03-23T12:11:13;10.18;;;4.95;;
25381;SDS011;16307;42.896;20.874;2024-03-23T12:13:59;13.43;;;5.05;;
25381;SDS011;16307;42.896;20.874;2024-03-23T12:16:45;15.65;;;6.00;;
25381;SDS011;16307;42.896;20.874;2024-03-23T12:19:30;17.23;;;5.45;;
25381;SDS011;16307;42.896;20.874;2024-03-23T12:22:15;21.15;;;6.22;;
25381;SDS011;16307;42.896;20.874;2024-03-23T12:25:01;23.75;;;10.60;;
25381;SDS011;16307;42.896;20.874;2024-03-23T12:27:46;18.95;;;7.07;;
25381;SDS011;16307;42.896;20.874;2024-03-23T12:30:32;11.13;;;5.63;;
25381;SDS011;16307;42.896;20.874;2024-03-23T12:33:18;18.52;;;7.50;;
25381;SDS011;16307;42.896;20.874;2024-03-23T12:36:04;15.07;;;6.78;;
25381;SDS011;16307;42.896;20.874;2024-03-23T12:38:49;22.02;;;6.05;;
25381;SDS011;16307;42.896;20.874;2024-03-23T12:41:34;12.88;;;5.88;;
25381;SDS011;16307;42.896;20.874;2024-03-23T12:44:19;15.18;;;6.82;;
25381;SDS011;16307;42.896;20.874;2024-03-23T12:47:05;12.82;;;6.97;;
25381;SDS011;16307;42.896;20.874;2024-03-23T12:49:50;14.85;;;7.25;;
25381;SDS011;16307;42.896;20.874;2024-03-23T12:52:37;11.30;;;5.47;;
25381;SDS011;16307;42.896;20.874;2024-03-23T12:55:23;15.15;;;6.72;;
25381;SDS011;16307;42.896;20.874;2024-03-23T12:58:08;11.90;;;6.28;;
25381;SDS011;16307;42.896;20.874;2024-03-23T13:00:53;19.45;;;6.60;;
25381;SDS011;16307;42.896;20.874;2024-03-23T13:03:38;12.65;;;6.70;;
25381;SDS011;16307;42.896;20.874;2024-03-23T13:06:23;13.85;;;7.00;;
25381;SDS011;16307;42.896;20.874;2024-03-23T13:09:08;13.30;;;5.70;;
25381;SDS011;16307;42.896;20.874;2024-03-23T13:11:53;15.60;;;8.38;;
25381;SDS011;16307;42.896;20.874;2024-03-23T13:14:38;15.63;;;7.07;;
25381;SDS011;16307;42.896;20.874;2024-03-23T13:17:24;17.45;;;8.73;;
25381;SDS011;16307;42.896;20.874;2024-03-23T13:20:09;12.65;;;6.68;;
25381;SDS011;16307;42.896;20.874;2024-03-23T13:22:58;16.45;;;6.50;;
25381;SDS011;16307;42.896;20.874;2024-03-23T13:25:50;11.82;;;6.47;;
25381;SDS011;16307;42.896;20.874;2024-03-23T13:28:37;17.98;;;7.85;;
25381;SDS011;16307;42.896;20.874;2024-03-23T13:31:22;12.02;;;6.03;;
25381;SDS011;16307;42.896;20.874;2024-03-23T13:34:07;13.82;;;7.18;;
25381;SDS011;16307;42.896;20.874;2024-03-23T13:36:52;11.05;;;6.13;;
25381;SDS011;16307;42.896;20.874;2024-03-23T13:39:38;16.02;;;6.65;;
25381;SDS011;16307;42.896;20.874;2024-03-23T13:42:23;15.50;;;6.70;;
25381;SDS011;16307;42.896;20.874;2024-03-23T13:45:10;17.25;;;6.72;;
25381;SDS011;16307;42.896;20.874;2024-03-23T13:48:03;12.00;;;5.85;;
25381;SDS011;16307;42.896;20.874;2024-03-23T13:50:59;19.95;;;6.55;;
25381;SDS011;16307;42.896;20.874;2024-03-23T13:53:45;12.95;;;6.15;;
25381;SDS011;16307;42.896;20.874;2024-03-23T13:56:30;18.50;;;7.65;;
25381;SDS011;16307;42.896;20.874;2024-03-23T13:59:15;28.60;;;9.93;;
25381;SDS011;16307;42.896;20.874;2024-03-23T14:02:01;19.13;;;5.80;;
25381;SDS011;16307;42.896;20.874;2024-03-23T14:04:46;11.80;;;6.63;;
25381;SDS011;16307;42.896;20.874;2024-03-23T14:07:32;10.18;;;5.35;;
25381;SDS011;16307;42.896;20.874;2024-03-23T14:10:18;11.55;;;6.75;;
25381;SDS011;16307;42.896;20.874;2024-03-23T14:13:03;10.77;;;5.93;;
25381;SDS011;16307;42.896;20.874;2024-03-23T14:15:52;12.48;;;6.93;;
25381;SDS011;16307;42.896;20.874;2024-03-23T14:18:38;13.52;;;6.88;;
25381;SDS011;16307;42.896;20.874;2024-03-23T14:21:23;14.55;;;6.30;;
25381;SDS011;16307;42.896;20.874;2024-03-23T14:24:08;13.82;;;6.00;;
25381;SDS011;16307;42.896;20.874;2024-03-23T14:26:54;16.30;;;6.22;;
25381;SDS011;16307;42.896;20.874;2024-03-23T14:29:39;15.82;;;6.20;;
25381;SDS011;16307;42.896;20.874;2024-03-23T14:32:24;9.55;;;5.28;;
25381;SDS011;16307;42.896;20.874;2024-03-23T14:35:09;12.38;;;6.68;;
25381;SDS011;16307;42.896;20.874;2024-03-23T14:37:55;11.57;;;5.72;;
25381;SDS011;16307;42.896;20.874;2024-03-23T14:40:40;8.95;;;6.00;;
25381;SDS011;16307;42.896;20.874;2024-03-23T14:43:26;13.00;;;5.70;;
25381;SDS011;16307;42.896;20.874;2024-03-23T14:46:15;9.48;;;4.88;;
25381;SDS011;16307;42.896;20.874;2024-03-23T14:49:01;15.20;;;5.45;;
25381;SDS011;16307;42.896;20.874;2024-03-23T14:51:46;15.50;;;6.07;;
25381;SDS011;16307;42.896;20.874;2024-03-23T14:54:31;12.95;;;6.32;;
25381;SDS011;16307;42.896;20.874;2024-03-23T14:57:16;11.23;;;5.47;;
25381;SDS011;16307;42.896;20.874;2024-03-23T15:00:04;12.93;;;5.97;;
25381;SDS011;16307;42.896;20.874;2024-03-23T15:02:51;8.50;;;5.82;;
25381;SDS011;16307;42.896;20.874;2024-03-23T15:05:36;14.82;;;7.20;;
25381;SDS011;16307;42.896;20.874;2024-03-23T15:08:23;18.05;;;7.90;;
25381;SDS011;16307;42.896;20.874;2024-03-23T15:11:08;13.95;;;7.10;;
25381;SDS011;16307;42.896;20.874;2024-03-23T15:13:54;14.98;;;7.18;;
25381;SDS011;16307;42.896;20.874;2024-03-23T15:16:40;14.48;;;6.35;;
25381;SDS011;16307;42.896;20.874;2024-03-23T15:19:27;15.75;;;5.68;;
25381;SDS011;16307;42.896;20.874;2024-03-23T15:22:12;15.88;;;6.13;;
25381;SDS011;16307;42.896;20.874;2024-03-23T15:24:57;13.75;;;7.47;;
25381;SDS011;16307;42.896;20.874;2024-03-23T15:27:42;14.65;;;7.50;;
25381;SDS011;16307;42.896;20.874;2024-03-23T15:30:27;12.50;;;6.40;;
25381;SDS011;16307;42.896;20.874;2024-03-23T15:33:12;11.77;;;6.50;;
25381;SDS011;16307;42.896;20.874;2024-03-23T15:36:01;12.10;;;5.90;;
25381;SDS011;16307;42.896;20.874;2024-03-23T15:38:49;14.23;;;5.95;;
25381;SDS011;16307;42.896;20.874;2024-03-23T15:41:34;10.32;;;4.93;;
25381;SDS011;16307;42.896;20.874;2024-03-23T15:44:20;10.82;;;4.90;;
25381;SDS011;16307;42.896;20.874;2024-03-23T15:47:05;14.45;;;5.65;;
25381;SDS011;16307;42.896;20.874;2024-03-23T15:49:50;15.18;;;4.68;;
25381;SDS011;16307;42.896;20.874;2024-03-23T15:52:38;10.63;;;4.78;;
25381;SDS011;16307;42.896;20.874;2024-03-23T15:55:23;12.85;;;5.10;;
25381;SDS011;16307;42.896;20.874;2024-03-23T15:58:08;9.45;;;4.85;;
25381;SDS011;16307;42.896;20.874;2024-03-23T16:01:03;10.18;;;4.97;;
25381;SDS011;16307;42.896;20.874;2024-03-23T16:03:55;10.23;;;5.10;;
25381;SDS011;16307;42.896;20.874;2024-03-23T16:06:40;11.68;;;5.45;;
25381;SDS011;16307;42.896;20.874;2024-03-23T16:09:26;14.00;;;5.35;;
25381;SDS011;16307;42.896;20.874;2024-03-23T16:12:13;13.77;;;6.57;;
25381;SDS011;16307;42.896;20.874;2024-03-23T16:14:58;12.88;;;6.45;;
25381;SDS011;16307;42.896;20.874;2024-03-23T16:17:43;14.88;;;6.60;;
25381;SDS011;16307;42.896;20.874;2024-03-23T16:20:28;10.57;;;6.18;;
25381;SDS011;16307;42.896;20.874;2024-03-23T16:23:13;15.10;;;7.00;;
25381;SDS011;16307;42.896;20.874;2024-03-23T16:25:58;17.88;;;8.43;;
25381;SDS011;16307;42.896;20.874;2024-03-23T16:28:47;11.68;;;6.20;;
25381;SDS011;16307;42.896;20.874;2024-03-23T16:31:33;17.05;;;6.47;;
25381;SDS011;16307;42.896;20.874;2024-03-23T16:34:18;12.38;;;6.07;;
25381;SDS011;16307;42.896;20.874;2024-03-23T16:37:03;10.70;;;6.28;;
25381;SDS011;16307;42.896;20.874;2024-03-23T16:39:48;10.27;;;5.50;;
25381;SDS011;16307;42.896;20.874;2024-03-23T16:42:33;12.63;;;5.35;;
25381;SDS011;16307;42.896;20.874;2024-03-23T16:45:18;14.05;;;6.32;;
25381;SDS011;16307;42.896;20.874;2024-03-23T16:48:03;21.65;;;8.63;;
25381;SDS011;16307;42.896;20.874;2024-03-23T16:50:49;12.32;;;6.20;;
25381;SDS011;16307;42.896;20.874;2024-03-23T16:53:35;19.75;;;7.07;;
25381;SDS011;16307;42.896;20.874;2024-03-23T16:56:20;18.40;;;8.25;;
25381;SDS011;16307;42.896;20.874;2024-03-23T16:59:05;12.27;;;6.63;;
25381;SDS011;16307;42.896;20.874;2024-03-23T17:01:50;11.02;;;6.57;;
25381;SDS011;16307;42.896;20.874;2024-03-23T17:04:35;12.65;;;6.07;;
25381;SDS011;16307;42.896;20.874;2024-03-23T17:07:21;16.85;;;7.03;;